createdAt,value
2022-07-29T00:01:51.106Z,23.46
2022-07-29T00:04:18.225Z,23.40
2022-07-29T00:06:44.926Z,23.42
2022-07-29T00:09:11.367Z,23.40
2022-07-29T00:11:37.969Z,23.41
2022-07-29T00:14:04.347Z,23.40
2022-07-29T00:16:30.971Z,23.22
2022-07-29T00:19:01.816Z,23.09
2022-07-29T00:21:28.681Z,23.10
2022-07-29T00:23:55.112Z,22.93
2022-07-29T00:26:21.880Z,22.86
2022-07-29T00:28:48.280Z,22.92
2022-07-29T00:31:14.775Z,22.95
2022-07-29T00:33:41.760Z,22.94
2022-07-29T00:36:08.724Z,22.92
2022-07-29T00:38:35.362Z,22.92
2022-07-29T00:41:01.976Z,22.88
2022-07-29T00:43:28.409Z,22.86
2022-07-29T00:45:54.840Z,22.83
2022-07-29T00:48:21.290Z,22.68
2022-07-29T00:50:47.717Z,22.45
2022-07-29T00:53:14.116Z,22.52
2022-07-29T00:55:40.732Z,22.57
2022-07-29T00:58:07.150Z,22.61
2022-07-29T01:00:34.044Z,22.61
2022-07-29T01:03:00.648Z,22.59
2022-07-29T01:05:50.788Z,22.57
2022-07-29T01:08:15.074Z,22.55
2022-07-29T01:10:41.594Z,22.60
2022-07-29T01:13:08.538Z,22.52
2022-07-29T01:15:35.110Z,22.48
2022-07-29T01:18:03.591Z,22.23
2022-07-29T01:20:32.765Z,22.27
2022-07-29T01:22:59.782Z,22.29
2022-07-29T01:25:26.265Z,22.29
2022-07-29T01:27:54.757Z,22.34
2022-07-29T01:30:22.032Z,22.36
2022-07-29T01:32:50.465Z,22.36
2022-07-29T01:35:16.885Z,22.23
2022-07-29T01:37:43.491Z,21.93
2022-07-29T01:40:10.167Z,21.98
2022-07-29T01:42:36.582Z,22.06
2022-07-29T01:45:03.143Z,22.06
2022-07-29T01:47:29.723Z,22.06
2022-07-29T01:49:56.146Z,21.97
2022-07-29T01:52:22.720Z,22.02
2022-07-29T01:54:49.110Z,22.05
2022-07-29T01:57:15.567Z,22.03
2022-07-29T01:59:42.454Z,22.04
2022-07-29T02:02:08.952Z,22.05
2022-07-29T02:04:35.452Z,22.03
2022-07-29T02:07:02.431Z,22.04
2022-07-29T02:09:29.208Z,21.95
2022-07-29T02:11:55.629Z,21.82
2022-07-29T02:14:22.613Z,21.61
2022-07-29T02:16:49.113Z,21.30
2022-07-29T02:19:15.607Z,21.51
2022-07-29T02:21:42.039Z,21.65
2022-07-29T02:24:08.455Z,21.74
2022-07-29T02:26:34.927Z,21.78
2022-07-29T02:29:01.435Z,21.71
2022-07-29T02:31:28.060Z,21.66
2022-07-29T02:33:54.673Z,21.62
2022-07-29T02:36:21.348Z,21.61
2022-07-29T02:38:47.735Z,21.62
2022-07-29T02:41:14.126Z,21.63
2022-07-29T02:43:40.829Z,21.65
2022-07-29T02:46:12.782Z,21.65
2022-07-29T02:48:53.748Z,21.51
2022-07-29T02:51:43.449Z,21.48
2022-07-29T02:54:08.821Z,21.51
2022-07-29T02:56:35.227Z,21.51
2022-07-29T02:59:01.622Z,21.46
2022-07-29T03:01:28.728Z,21.20
2022-07-29T03:03:55.187Z,21.22
2022-07-29T03:06:31.379Z,21.22
2022-07-29T03:09:10.496Z,21.23
2022-07-29T03:11:50.063Z,21.20
2022-07-29T03:14:17.629Z,21.07
2022-07-29T03:16:44.439Z,21.14
2022-07-29T03:19:10.851Z,21.06
2022-07-29T03:21:37.607Z,21.07
2022-07-29T03:24:09.791Z,21.01
2022-07-29T03:26:36.880Z,20.65
2022-07-29T03:29:09.336Z,20.65
2022-07-29T03:31:39.940Z,20.55
2022-07-29T03:34:10.311Z,20.59
2022-07-29T03:36:36.744Z,20.73
2022-07-29T03:39:03.178Z,20.64
2022-07-29T03:41:29.751Z,20.41
2022-07-29T03:43:56.203Z,20.11
2022-07-29T03:46:22.655Z,19.89
2022-07-29T03:48:49.182Z,19.85
2022-07-29T03:51:15.668Z,20.04
2022-07-29T03:53:42.123Z,20.16
2022-07-29T03:56:08.763Z,20.19
2022-07-29T03:58:35.409Z,20.26
2022-07-29T04:01:01.838Z,20.15
2022-07-29T04:03:28.942Z,20.33
2022-07-29T04:05:55.396Z,20.33
2022-07-29T04:08:21.787Z,20.04
2022-07-29T04:10:48.797Z,20.30
2022-07-29T04:13:15.187Z,20.36
2022-07-29T04:15:41.727Z,20.55
2022-07-29T04:18:08.194Z,20.20
2022-07-29T04:20:34.659Z,19.87
2022-07-29T04:23:01.416Z,19.68
2022-07-29T04:25:27.973Z,19.73
2022-07-29T04:27:54.380Z,20.02
2022-07-29T04:30:20.783Z,19.35
2022-07-29T04:32:47.547Z,19.65
2022-07-29T04:35:13.936Z,19.98
2022-07-29T04:37:40.349Z,20.08
2022-07-29T04:40:11.631Z,20.35
2022-07-29T04:42:46.245Z,20.16
2022-07-29T04:45:13.866Z,20.23
2022-07-29T04:47:40.655Z,20.25
2022-07-29T04:50:07.329Z,20.35
2022-07-29T04:52:34.038Z,20.23
2022-07-29T04:55:00.693Z,20.08
2022-07-29T04:57:27.151Z,20.26
2022-07-29T04:59:53.636Z,20.65
2022-07-29T05:02:20.078Z,20.96
2022-07-29T05:04:46.512Z,21.23
2022-07-29T05:07:13.133Z,21.45
2022-07-29T05:09:39.557Z,21.64
2022-07-29T05:12:06.015Z,21.58
2022-07-29T05:14:32.651Z,21.63
2022-07-29T05:16:59.037Z,21.83
2022-07-29T05:19:25.445Z,21.73
2022-07-29T05:21:51.912Z,21.98
2022-07-29T05:24:18.697Z,22.15
2022-07-29T05:26:45.342Z,22.25
2022-07-29T05:29:44.964Z,22.31
2022-07-29T05:31:58.126Z,22.35
2022-07-29T05:34:24.618Z,22.06
2022-07-29T05:36:51.023Z,22.00
2022-07-29T05:39:17.399Z,22.26
2022-07-29T05:41:48.841Z,22.38
2022-07-29T05:44:18.497Z,22.44
2022-07-29T05:46:45.108Z,22.45
2022-07-29T05:49:12.292Z,22.50
2022-07-29T05:51:53.792Z,22.47
2022-07-29T05:54:20.413Z,22.42
2022-07-29T05:56:46.818Z,22.53
2022-07-29T05:59:17.952Z,22.62
2022-07-29T06:01:44.812Z,22.71
2022-07-29T06:04:11.396Z,22.82
2022-07-29T06:06:37.893Z,22.86
2022-07-29T06:09:12.197Z,22.99
2022-07-29T06:11:39.138Z,23.10
2022-07-29T06:14:05.639Z,23.11
2022-07-29T06:16:32.114Z,23.08
2022-07-29T06:18:58.533Z,23.11
2022-07-29T06:21:25.205Z,23.17
2022-07-29T06:23:51.592Z,23.31
2022-07-29T06:26:18.000Z,23.35
2022-07-29T06:28:44.485Z,23.33
2022-07-29T06:31:10.980Z,23.26
2022-07-29T06:33:37.471Z,23.32
2022-07-29T06:36:03.975Z,23.29
2022-07-29T06:38:34.316Z,23.25
2022-07-29T06:41:06.721Z,23.29
2022-07-29T06:43:33.121Z,23.29
2022-07-29T06:45:59.557Z,23.29
2022-07-29T06:48:26.200Z,23.23
2022-07-29T06:50:52.608Z,23.28
2022-07-29T06:53:19.077Z,23.22
2022-07-29T06:55:48.673Z,23.11
2022-07-29T06:58:15.067Z,22.92
2022-07-29T07:00:41.541Z,22.96
2022-07-29T07:03:08.158Z,22.98
2022-07-29T07:05:34.627Z,22.97
2022-07-29T07:08:01.080Z,23.01
2022-07-29T07:10:27.483Z,23.01
2022-07-29T07:12:53.873Z,23.00
2022-07-29T07:15:20.302Z,22.88
2022-07-29T07:17:46.827Z,22.93
2022-07-29T07:20:13.340Z,23.03
2022-07-29T07:22:39.773Z,23.10
2022-07-29T07:25:06.201Z,23.09
2022-07-29T07:27:32.613Z,23.05
2022-07-29T07:29:59.107Z,23.08
2022-07-29T07:32:26.129Z,23.14
2022-07-29T07:34:52.616Z,23.13
2022-07-29T07:37:19.050Z,23.21
2022-07-29T07:39:45.576Z,23.23
2022-07-29T07:42:11.978Z,23.31
2022-07-29T07:44:51.501Z,23.37
2022-07-29T07:47:24.803Z,23.54
2022-07-29T07:49:54.470Z,23.55
2022-07-29T07:52:20.909Z,23.64
2022-07-29T07:54:47.352Z,23.79
2022-07-29T07:57:13.747Z,23.73
2022-07-29T07:59:40.193Z,23.60
2022-07-29T08:02:06.839Z,23.13
2022-07-29T08:04:33.321Z,23.35
2022-07-29T08:06:59.732Z,23.49
2022-07-29T08:09:29.895Z,22.90
2022-07-29T08:11:56.826Z,23.21
2022-07-29T08:14:23.319Z,23.23
2022-07-29T08:16:50.114Z,23.49
2022-07-29T08:19:16.551Z,23.43
2022-07-29T08:21:42.982Z,23.42
2022-07-29T08:24:09.447Z,23.45
2022-07-29T08:26:35.802Z,23.35
2022-07-29T08:29:02.171Z,23.12
2022-07-29T08:31:28.961Z,23.36
2022-07-29T08:33:55.418Z,23.59
2022-07-29T08:36:21.914Z,23.68
2022-07-29T08:38:48.398Z,23.70
2022-07-29T08:41:14.778Z,23.66
2022-07-29T08:43:41.171Z,23.88
2022-07-29T08:46:08.032Z,24.04
2022-07-29T08:48:34.459Z,24.15
2022-07-29T08:51:00.806Z,24.34
2022-07-29T08:53:28.990Z,24.52
2022-07-29T08:55:55.398Z,24.15
2022-07-29T08:58:23.368Z,22.92
2022-07-29T09:00:51.294Z,22.77
2022-07-29T09:03:17.801Z,23.49
2022-07-29T09:05:47.961Z,23.71
2022-07-29T09:08:14.857Z,23.19
2022-07-29T09:10:41.374Z,22.44
2022-07-29T09:13:07.731Z,22.79
2022-07-29T09:15:34.151Z,22.84
2022-07-29T09:18:00.542Z,23.25
2022-07-29T09:20:26.956Z,22.92
2022-07-29T09:22:53.422Z,22.35
2022-07-29T09:25:19.807Z,22.35
2022-07-29T09:27:46.221Z,22.26
2022-07-29T09:30:12.791Z,23.32
2022-07-29T09:32:39.487Z,22.99
2022-07-29T09:35:09.875Z,22.49
2022-07-29T09:37:36.468Z,22.50
2022-07-29T09:40:02.870Z,22.63
2022-07-29T09:42:29.265Z,22.86
2022-07-29T09:44:55.884Z,23.29
2022-07-29T09:47:22.297Z,23.74
2022-07-29T09:49:48.675Z,24.16
2022-07-29T09:52:17.281Z,24.16
2022-07-29T09:54:43.710Z,23.36
2022-07-29T09:57:10.099Z,22.86
2022-07-29T09:59:37.384Z,23.16
2022-07-29T10:02:21.707Z,23.64
2022-07-29T10:04:48.637Z,23.84
2022-07-29T10:07:15.056Z,22.76
2022-07-29T10:09:41.441Z,22.94
2022-07-29T10:12:07.857Z,23.09
2022-07-29T10:14:34.314Z,23.56
2022-07-29T10:17:00.887Z,24.24
2022-07-29T10:19:27.376Z,24.70
2022-07-29T10:21:57.905Z,24.99
2022-07-29T10:24:24.544Z,25.17
2022-07-29T10:26:50.934Z,25.41
2022-07-29T10:29:17.347Z,25.04
2022-07-29T10:31:43.755Z,25.06
2022-07-29T10:34:10.245Z,25.33
2022-07-29T10:36:38.775Z,25.11
2022-07-29T10:39:05.416Z,24.79
2022-07-29T10:41:43.629Z,24.80
2022-07-29T10:44:22.899Z,25.13
2022-07-29T10:46:50.068Z,25.04
2022-07-29T10:49:16.587Z,24.55
2022-07-29T10:51:44.617Z,24.15
2022-07-29T10:54:11.492Z,24.78
2022-07-29T10:56:37.912Z,24.89
2022-07-29T10:59:04.609Z,25.04
2022-07-29T11:01:37.431Z,22.74
2022-07-29T11:04:05.482Z,23.14
2022-07-29T11:06:34.564Z,23.40
2022-07-29T11:09:01.125Z,23.67
2022-07-29T11:11:29.731Z,23.02
2022-07-29T11:13:57.093Z,22.68
2022-07-29T11:16:25.248Z,21.81
2022-07-29T11:18:51.951Z,21.02
2022-07-29T11:21:23.256Z,21.54
2022-07-29T11:23:50.112Z,21.78
2022-07-29T11:29:02.962Z,21.84
2022-07-29T11:31:29.353Z,22.47
2022-07-29T11:33:56.811Z,22.49
2022-07-29T11:36:28.279Z,22.59
2022-07-29T11:38:54.974Z,22.43
2022-07-29T11:41:21.467Z,22.90
2022-07-29T11:43:48.024Z,23.17
2022-07-29T11:46:17.167Z,23.04
2022-07-29T11:51:38.233Z,23.82
2022-07-29T11:54:15.751Z,24.77
2022-07-29T11:56:42.492Z,23.46
2022-07-29T11:59:09.064Z,22.86
2022-07-29T12:01:38.782Z,22.85
2022-07-29T12:04:06.806Z,22.62
2022-07-29T12:06:33.365Z,23.36
2022-07-29T12:07:02.873Z,21.87
2022-07-29T12:09:00.266Z,24.20
2022-07-29T12:11:26.623Z,24.33
2022-07-29T12:13:53.179Z,24.00
2022-07-29T12:16:25.766Z,24.05
2022-07-29T12:18:55.846Z,24.81
2022-07-29T12:21:25.616Z,24.35
2022-07-29T12:23:52.524Z,24.38
2022-07-29T12:26:21.959Z,25.36
2022-07-29T12:28:52.190Z,26.15
2022-07-29T12:31:43.806Z,26.81
2022-07-29T12:34:07.870Z,27.25
2022-07-29T12:36:34.634Z,27.47
2022-07-29T12:39:01.363Z,25.92
2022-07-29T12:41:27.822Z,24.76
2022-07-29T12:43:54.248Z,24.88
2022-07-29T12:46:20.864Z,24.18
2022-07-29T12:48:47.569Z,24.15
2022-07-29T12:51:14.096Z,24.03
2022-07-29T12:53:40.810Z,24.27
2022-07-29T12:56:26.705Z,24.38
2022-07-29T12:58:54.396Z,25.02
2022-07-29T13:01:20.932Z,26.00
2022-07-29T13:03:57.058Z,25.01
2022-07-29T13:06:24.603Z,23.76
2022-07-29T13:08:51.168Z,23.19
2022-07-29T13:11:17.802Z,23.09
2022-07-29T13:13:44.257Z,22.91
2022-07-29T13:16:10.749Z,22.76
2022-07-29T13:18:37.176Z,22.65
2022-07-29T13:21:03.954Z,22.63
2022-07-29T13:23:30.543Z,21.22
2022-07-29T13:25:59.591Z,21.63
2022-07-29T13:28:28.533Z,21.45
2022-07-29T13:30:55.081Z,21.97
2022-07-29T13:33:21.591Z,22.90
2022-07-29T13:35:48.352Z,23.69
2022-07-29T13:38:14.761Z,22.62
2022-07-29T13:40:41.329Z,23.49
2022-07-29T13:43:07.927Z,23.59
2022-07-29T13:45:34.607Z,23.92
2022-07-29T13:48:01.043Z,23.15
2022-07-29T13:50:28.047Z,23.76
2022-07-29T13:52:54.411Z,23.39
2022-07-29T13:55:20.866Z,23.05
2022-07-29T13:57:47.501Z,23.59
2022-07-29T14:00:14.099Z,23.56
2022-07-29T14:02:40.692Z,23.59
2022-07-29T14:05:08.681Z,23.58
2022-07-29T14:07:35.550Z,23.74
2022-07-29T14:10:01.966Z,23.47
2022-07-29T14:12:28.769Z,23.88
2022-07-29T14:14:55.333Z,23.94
2022-07-29T14:17:21.945Z,23.76
2022-07-29T14:19:48.721Z,23.76
2022-07-29T14:22:15.257Z,23.44
2022-07-29T14:24:42.858Z,22.90
2022-07-29T14:27:09.553Z,22.35
2022-07-29T14:29:37.172Z,21.94
2022-07-29T14:32:04.872Z,22.62
2022-07-29T14:34:31.341Z,22.85
2022-07-29T14:36:57.901Z,22.84
2022-07-29T14:39:24.745Z,22.97
2022-07-29T14:41:58.495Z,23.12
2022-07-29T14:44:25.269Z,23.02
2022-07-29T14:46:52.085Z,23.23
2022-07-29T14:49:18.568Z,22.81
2022-07-29T14:51:44.973Z,22.32
2022-07-29T14:54:11.568Z,22.31
2022-07-29T14:56:46.561Z,22.49
2022-07-29T14:59:14.004Z,22.79
2022-07-29T15:01:40.735Z,23.09
2022-07-29T15:04:07.387Z,23.28
2022-07-29T15:06:33.758Z,23.02
2022-07-29T15:09:00.356Z,22.24
2022-07-29T15:11:26.803Z,22.65
2022-07-29T15:13:53.218Z,23.12
2022-07-29T15:16:19.839Z,22.86
2022-07-29T15:18:46.358Z,22.84
2022-07-29T15:21:12.745Z,23.23
2022-07-29T15:23:39.195Z,23.23
2022-07-29T15:26:05.629Z,23.20
2022-07-29T15:28:32.270Z,23.26
2022-07-29T15:30:58.933Z,23.24
2022-07-29T15:33:25.373Z,23.20
2022-07-29T15:35:51.879Z,23.54
2022-07-29T15:38:18.742Z,23.52
2022-07-29T15:40:45.168Z,23.38
2022-07-29T15:43:11.832Z,23.64
2022-07-29T15:45:40.475Z,23.64
2022-07-29T15:48:07.507Z,23.54
2022-07-29T15:50:33.948Z,23.64
2022-07-29T15:53:00.653Z,23.53
2022-07-29T15:55:27.102Z,23.48
2022-07-29T15:57:57.186Z,23.62
2022-07-29T16:00:26.589Z,23.95
2022-07-29T16:02:53.001Z,23.87
2022-07-29T16:05:19.640Z,24.06
2022-07-29T16:07:46.296Z,24.10
2022-07-29T16:10:12.677Z,24.02
2022-07-29T16:12:39.067Z,24.01
2022-07-29T16:15:09.665Z,23.94
2022-07-29T16:17:36.494Z,23.67
2022-07-29T16:20:02.908Z,23.55
2022-07-29T16:22:29.400Z,23.97
2022-07-29T16:24:55.795Z,23.92
2022-07-29T16:27:22.272Z,23.59
2022-07-29T16:29:48.989Z,24.13
2022-07-29T16:32:15.418Z,24.54
2022-07-29T16:34:50.342Z,24.54
2022-07-29T16:37:16.819Z,24.77
2022-07-29T16:39:43.222Z,24.80
2022-07-29T16:42:17.147Z,24.93
2022-07-29T16:44:52.102Z,24.94
2022-07-29T16:47:18.873Z,25.04
2022-07-29T16:49:46.690Z,24.58
2022-07-29T16:52:13.567Z,24.75
2022-07-29T16:54:40.244Z,25.01
2022-07-29T16:57:06.783Z,25.31
2022-07-29T16:59:33.201Z,25.46
2022-07-29T17:02:10.204Z,25.58
2022-07-29T17:04:36.672Z,25.62
2022-07-29T17:07:03.087Z,25.62
2022-07-29T17:09:29.994Z,25.60
2022-07-29T17:11:56.493Z,25.58
2022-07-29T17:14:23.353Z,25.58
2022-07-29T17:17:02.901Z,25.58
2022-07-29T17:19:29.882Z,25.61
2022-07-29T17:22:04.650Z,25.63
2022-07-29T17:24:35.553Z,25.57
2022-07-29T17:27:02.176Z,25.50
2022-07-29T17:29:28.782Z,25.44
2022-07-29T17:31:55.188Z,25.39
2022-07-29T17:34:21.678Z,25.36
2022-07-29T17:36:48.660Z,25.33
2022-07-29T17:39:15.488Z,25.32
2022-07-29T17:41:42.188Z,25.29
2022-07-29T17:44:08.688Z,25.24
2022-07-29T17:46:35.156Z,25.20
2022-07-29T17:49:01.869Z,25.19
2022-07-29T17:51:28.269Z,25.13
2022-07-29T17:53:54.682Z,25.13
2022-07-29T17:56:25.735Z,25.11
2022-07-29T17:58:52.229Z,25.06
2022-07-29T18:01:18.831Z,25.01
2022-07-29T18:03:45.854Z,24.99
2022-07-29T18:06:12.282Z,24.96
2022-07-29T18:08:38.726Z,24.89
2022-07-29T18:11:05.599Z,24.83
2022-07-29T18:13:32.007Z,24.74
2022-07-29T18:16:00.534Z,24.72
2022-07-29T18:18:27.643Z,24.73
2022-07-29T18:20:54.106Z,24.70
2022-07-29T18:23:20.562Z,24.58
2022-07-29T18:25:47.007Z,24.30
2022-07-29T18:28:13.563Z,24.32
2022-07-29T18:30:39.953Z,24.36
2022-07-29T18:33:22.681Z,24.40
2022-07-29T18:35:49.443Z,24.45
2022-07-29T18:38:16.038Z,24.42
2022-07-29T18:40:42.450Z,24.41
2022-07-29T18:43:08.862Z,24.42
2022-07-29T18:45:35.590Z,24.42
2022-07-29T18:48:06.050Z,24.37
2022-07-29T18:50:32.501Z,24.25
2022-07-29T18:52:59.122Z,24.23
2022-07-29T18:55:25.536Z,24.23
2022-07-29T18:57:54.409Z,24.22
2022-07-29T19:00:22.949Z,24.10
2022-07-29T19:02:50.209Z,24.05
2022-07-29T19:05:16.754Z,23.94
2022-07-29T19:07:43.477Z,23.96
2022-07-29T19:10:09.948Z,23.89
2022-07-29T19:12:36.410Z,23.97
2022-07-29T19:15:02.969Z,23.97
2022-07-29T19:17:29.390Z,23.71
2022-07-29T19:19:55.797Z,23.66
2022-07-29T19:22:22.318Z,23.42
2022-07-29T19:24:48.724Z,23.16
2022-07-29T19:27:15.114Z,22.85
2022-07-29T19:29:42.264Z,22.19
2022-07-29T19:32:08.722Z,21.89
2022-07-29T19:34:35.436Z,21.75
2022-07-29T19:37:02.461Z,22.27
2022-07-29T19:39:35.285Z,22.52
2022-07-29T19:42:03.370Z,22.25
2022-07-29T19:44:30.197Z,22.48
2022-07-29T19:46:56.930Z,22.60
2022-07-29T19:49:23.846Z,22.78
2022-07-29T19:51:50.314Z,22.82
2022-07-29T19:54:19.878Z,22.53
2022-07-29T19:56:47.210Z,22.63
2022-07-29T19:59:13.638Z,22.72
2022-07-29T20:01:40.580Z,22.87
2022-07-29T20:04:07.113Z,22.88
2022-07-29T20:06:33.575Z,22.04
2022-07-29T20:09:00.155Z,21.63
2022-07-29T20:11:26.626Z,21.63
2022-07-29T20:13:53.029Z,21.54
2022-07-29T20:16:19.610Z,21.31
2022-07-29T20:18:46.308Z,21.40
2022-07-29T20:21:13.337Z,21.11
2022-07-29T20:23:39.761Z,20.93
2022-07-29T20:26:09.430Z,20.78
2022-07-29T20:28:36.358Z,20.97
2022-07-29T20:31:02.805Z,21.26
2022-07-29T20:33:29.515Z,21.43
2022-07-29T20:35:55.898Z,21.57
2022-07-29T20:38:22.290Z,21.26
2022-07-29T20:40:48.757Z,20.51
2022-07-29T20:43:15.145Z,20.50
2022-07-29T20:45:41.671Z,20.55
2022-07-29T20:48:08.556Z,20.81
2022-07-29T20:50:35.050Z,20.78
2022-07-29T20:53:01.608Z,20.69
2022-07-29T20:55:28.274Z,20.46
2022-07-29T20:57:54.663Z,20.62
2022-07-29T21:00:21.048Z,20.42
2022-07-29T21:02:48.210Z,20.88
2022-07-29T21:05:14.790Z,20.92
2022-07-29T21:07:41.208Z,20.83
2022-07-29T21:10:07.692Z,21.00
2022-07-29T21:12:34.230Z,20.90
2022-07-29T21:15:00.661Z,20.71
2022-07-29T21:17:27.618Z,20.86
2022-07-29T21:19:54.050Z,20.70
2022-07-29T21:22:20.604Z,20.95
2022-07-29T21:24:47.151Z,21.12
2022-07-29T21:27:20.663Z,20.88
2022-07-29T21:29:48.362Z,20.37
2022-07-29T21:32:14.776Z,19.94
2022-07-29T21:34:56.203Z,19.58
2022-07-29T21:37:22.648Z,19.95
2022-07-29T21:39:49.070Z,20.36
2022-07-29T21:42:15.531Z,20.60
2022-07-29T21:44:42.111Z,20.55
2022-07-29T21:47:08.532Z,20.41
2022-07-29T21:49:35.072Z,19.95
2022-07-29T21:52:01.646Z,20.40
2022-07-29T21:54:28.330Z,20.50
2022-07-29T21:56:55.087Z,20.48
2022-07-29T21:59:23.684Z,20.14
2022-07-29T22:01:50.143Z,20.27
2022-07-29T22:04:16.795Z,20.35
2022-07-29T22:06:43.320Z,20.25
2022-07-29T22:09:09.707Z,20.02
2022-07-29T22:11:36.321Z,19.48
2022-07-29T22:14:02.759Z,19.09
2022-07-29T22:16:29.193Z,19.43
2022-07-29T22:18:56.026Z,19.07
2022-07-29T22:21:22.460Z,19.39
2022-07-29T22:23:48.838Z,19.80
2022-07-29T22:26:15.311Z,19.99
2022-07-29T22:28:41.725Z,20.09
2022-07-29T22:31:08.213Z,20.14
2022-07-29T22:33:34.879Z,20.30
2022-07-29T22:36:01.480Z,20.19
2022-07-29T22:38:27.902Z,19.90
2022-07-29T22:40:54.461Z,20.07
2022-07-29T22:43:27.063Z,20.26
2022-07-29T22:45:53.516Z,20.32
2022-07-29T22:48:20.325Z,20.26
2022-07-29T22:50:46.708Z,20.16
2022-07-29T22:53:13.099Z,20.06
2022-07-29T22:55:39.903Z,19.99
2022-07-29T22:58:06.295Z,19.83
2022-07-29T23:00:32.696Z,19.91
2022-07-29T23:02:59.278Z,20.18
2022-07-29T23:05:25.714Z,20.07
2022-07-29T23:07:52.153Z,19.74
2022-07-29T23:10:18.551Z,19.94
2022-07-29T23:12:44.915Z,19.99
2022-07-29T23:15:11.295Z,19.70
2022-07-29T23:17:37.756Z,19.41
2022-07-29T23:20:04.145Z,19.65
2022-07-29T23:22:30.572Z,19.78
2022-07-29T23:24:57.087Z,19.64
2022-07-29T23:27:23.499Z,19.19
2022-07-29T23:29:50.056Z,19.58
2022-07-29T23:32:16.631Z,19.88
2022-07-29T23:34:43.028Z,18.78
2022-07-29T23:37:09.513Z,19.36
2022-07-29T23:39:36.077Z,19.29
2022-07-29T23:42:02.452Z,18.84
2022-07-29T23:44:28.862Z,18.83
2022-07-29T23:46:55.848Z,18.91
2022-07-29T23:49:22.517Z,18.96
2022-07-29T23:51:49.030Z,18.74
2022-07-29T23:54:15.658Z,18.75
2022-07-29T23:56:42.080Z,19.25
2022-07-29T23:59:08.516Z,18.25
